sensor_id;sensor_type;location;lat;lon;timestamp;P1;durP1;ratioP1;P2;durP2;ratioP2
67274;SDS011;55463;52.324;5.122;2022-12-07T00:00:49;6.70;;;1.70;;
67274;SDS011;55463;52.324;5.122;2022-12-07T00:03:14;10.43;;;1.92;;
67274;SDS011;55463;52.324;5.122;2022-12-07T00:05:40;8.48;;;1.63;;
67274;SDS011;55463;52.324;5.122;2022-12-07T00:08:05;5.35;;;1.92;;
67274;SDS011;55463;52.324;5.122;2022-12-07T00:10:32;9.13;;;2.20;;
67274;SDS011;55463;52.324;5.122;2022-12-07T00:12:58;7.72;;;1.77;;
67274;SDS011;55463;52.324;5.122;2022-12-07T00:15:24;7.97;;;1.60;;
67274;SDS011;55463;52.324;5.122;2022-12-07T00:17:49;9.38;;;2.85;;
67274;SDS011;55463;52.324;5.122;2022-12-07T00:20:14;9.65;;;2.13;;
67274;SDS011;55463;52.324;5.122;2022-12-07T00:22:40;5.50;;;1.60;;
67274;SDS011;55463;52.324;5.122;2022-12-07T00:25:05;6.35;;;1.92;;
67274;SDS011;55463;52.324;5.122;2022-12-07T00:27:31;6.13;;;1.63;;
67274;SDS011;55463;52.324;5.122;2022-12-07T00:29:56;9.73;;;1.92;;
67274;SDS011;55463;52.324;5.122;2022-12-07T00:32:22;7.25;;;1.95;;
67274;SDS011;55463;52.324;5.122;2022-12-07T00:34:47;2.97;;;1.67;;
67274;SDS011;55463;52.324;5.122;2022-12-07T00:37:12;7.45;;;1.50;;
67274;SDS011;55463;52.324;5.122;2022-12-07T00:39:38;9.18;;;1.88;;
67274;SDS011;55463;52.324;5.122;2022-12-07T00:42:03;9.23;;;1.42;;
67274;SDS011;55463;52.324;5.122;2022-12-07T00:44:28;4.93;;;1.70;;
67274;SDS011;55463;52.324;5.122;2022-12-07T00:46:54;5.88;;;1.88;;
67274;SDS011;55463;52.324;5.122;2022-12-07T00:49:20;6.85;;;1.65;;
67274;SDS011;55463;52.324;5.122;2022-12-07T00:51:47;7.25;;;1.60;;
67274;SDS011;55463;52.324;5.122;2022-12-07T00:54:14;10.80;;;1.88;;
67274;SDS011;55463;52.324;5.122;2022-12-07T00:56:39;8.25;;;1.80;;
67274;SDS011;55463;52.324;5.122;2022-12-07T00:59:04;3.42;;;1.40;;
67274;SDS011;55463;52.324;5.122;2022-12-07T01:01:31;8.73;;;1.60;;
67274;SDS011;55463;52.324;5.122;2022-12-07T01:03:59;5.15;;;1.50;;
67274;SDS011;55463;52.324;5.122;2022-12-07T01:06:26;1.73;;;1.00;;
67274;SDS011;55463;52.324;5.122;2022-12-07T01:08:52;4.45;;;1.30;;
67274;SDS011;55463;52.324;5.122;2022-12-07T01:11:19;3.85;;;1.10;;
67274;SDS011;55463;52.324;5.122;2022-12-07T01:13:46;7.25;;;1.38;;
67274;SDS011;55463;52.324;5.122;2022-12-07T01:16:15;7.20;;;1.30;;
67274;SDS011;55463;52.324;5.122;2022-12-07T01:18:41;5.78;;;1.10;;
67274;SDS011;55463;52.324;5.122;2022-12-07T01:21:14;6.80;;;1.60;;
67274;SDS011;55463;52.324;5.122;2022-12-07T01:23:42;6.85;;;1.30;;
67274;SDS011;55463;52.324;5.122;2022-12-07T01:26:09;8.23;;;1.65;;
67274;SDS011;55463;52.324;5.122;2022-12-07T01:28:36;3.65;;;1.30;;
67274;SDS011;55463;52.324;5.122;2022-12-07T01:31:03;5.45;;;1.55;;
67274;SDS011;55463;52.324;5.122;2022-12-07T01:33:32;7.70;;;1.67;;
67274;SDS011;55463;52.324;5.122;2022-12-07T01:36:13;5.90;;;1.48;;
67274;SDS011;55463;52.324;5.122;2022-12-07T01:38:42;5.00;;;1.38;;
67274;SDS011;55463;52.324;5.122;2022-12-07T01:41:07;8.93;;;1.45;;
67274;SDS011;55463;52.324;5.122;2022-12-07T01:43:33;9.77;;;1.70;;
67274;SDS011;55463;52.324;5.122;2022-12-07T01:46:00;10.57;;;1.65;;
67274;SDS011;55463;52.324;5.122;2022-12-07T01:48:27;10.18;;;1.83;;
67274;SDS011;55463;52.324;5.122;2022-12-07T01:50:56;17.08;;;3.63;;
67274;SDS011;55463;52.324;5.122;2022-12-07T01:53:28;8.18;;;1.40;;
67274;SDS011;55463;52.324;5.122;2022-12-07T01:55:55;6.20;;;1.52;;
67274;SDS011;55463;52.324;5.122;2022-12-07T01:58:22;7.68;;;1.40;;
67274;SDS011;55463;52.324;5.122;2022-12-07T02:00:49;13.02;;;1.60;;
67274;SDS011;55463;52.324;5.122;2022-12-07T02:03:16;6.82;;;1.55;;
67274;SDS011;55463;52.324;5.122;2022-12-07T02:05:45;3.85;;;1.73;;
67274;SDS011;55463;52.324;5.122;2022-12-07T02:08:13;7.72;;;1.73;;
67274;SDS011;55463;52.324;5.122;2022-12-07T02:10:38;4.03;;;1.20;;
67274;SDS011;55463;52.324;5.122;2022-12-07T02:13:09;3.47;;;1.30;;
67274;SDS011;55463;52.324;5.122;2022-12-07T02:15:41;3.78;;;1.38;;
67274;SDS011;55463;52.324;5.122;2022-12-07T02:21:12;6.80;;;1.52;;
67274;SDS011;55463;52.324;5.122;2022-12-07T02:29:19;6.75;;;1.63;;
67274;SDS011;55463;52.324;5.122;2022-12-07T02:34:49;10.85;;;1.88;;
67274;SDS011;55463;52.324;5.122;2022-12-07T02:42:40;8.15;;;1.70;;
67274;SDS011;55463;52.324;5.122;2022-12-07T02:45:11;4.50;;;1.30;;
67274;SDS011;55463;52.324;5.122;2022-12-07T02:47:39;7.53;;;1.55;;
67274;SDS011;55463;52.324;5.122;2022-12-07T02:50:06;6.78;;;1.55;;
67274;SDS011;55463;52.324;5.122;2022-12-07T02:52:32;7.82;;;1.50;;
67274;SDS011;55463;52.324;5.122;2022-12-07T02:54:57;5.28;;;1.67;;
67274;SDS011;55463;52.324;5.122;2022-12-07T03:00:07;13.73;;;1.93;;
67274;SDS011;55463;52.324;5.122;2022-12-07T03:16:01;9.35;;;1.88;;
67274;SDS011;55463;52.324;5.122;2022-12-07T03:18:34;8.65;;;1.67;;
67274;SDS011;55463;52.324;5.122;2022-12-07T03:21:05;9.60;;;1.77;;
67274;SDS011;55463;52.324;5.122;2022-12-07T03:23:39;5.43;;;1.65;;
67274;SDS011;55463;52.324;5.122;2022-12-07T03:26:08;7.47;;;1.90;;
67274;SDS011;55463;52.324;5.122;2022-12-07T03:28:37;8.27;;;1.60;;
67274;SDS011;55463;52.324;5.122;2022-12-07T03:34:15;11.55;;;2.05;;
67274;SDS011;55463;52.324;5.122;2022-12-07T03:37:03;4.78;;;1.35;;
67274;SDS011;55463;52.324;5.122;2022-12-07T03:42:23;5.50;;;1.67;;
67274;SDS011;55463;52.324;5.122;2022-12-07T03:44:49;7.85;;;1.52;;
67274;SDS011;55463;52.324;5.122;2022-12-07T03:47:16;12.68;;;2.05;;
67274;SDS011;55463;52.324;5.122;2022-12-07T03:55:30;5.95;;;1.50;;
67274;SDS011;55463;52.324;5.122;2022-12-07T03:58:05;7.07;;;1.73;;
67274;SDS011;55463;52.324;5.122;2022-12-07T04:00:34;5.22;;;1.90;;
67274;SDS011;55463;52.324;5.122;2022-12-07T04:02:59;7.60;;;1.80;;
67274;SDS011;55463;52.324;5.122;2022-12-07T04:05:24;8.07;;;1.55;;
67274;SDS011;55463;52.324;5.122;2022-12-07T04:07:50;3.10;;;1.20;;
67274;SDS011;55463;52.324;5.122;2022-12-07T04:10:16;6.13;;;1.77;;
67274;SDS011;55463;52.324;5.122;2022-12-07T04:12:42;10.88;;;1.75;;
67274;SDS011;55463;52.324;5.122;2022-12-07T04:15:07;8.57;;;1.52;;
67274;SDS011;55463;52.324;5.122;2022-12-07T04:17:33;6.18;;;1.52;;
67274;SDS011;55463;52.324;5.122;2022-12-07T04:19:59;9.80;;;2.85;;
67274;SDS011;55463;52.324;5.122;2022-12-07T04:22:24;13.07;;;2.95;;
67274;SDS011;55463;52.324;5.122;2022-12-07T04:24:49;10.20;;;1.58;;
67274;SDS011;55463;52.324;5.122;2022-12-07T04:27:15;6.70;;;1.60;;
67274;SDS011;55463;52.324;5.122;2022-12-07T04:29:40;15.82;;;1.95;;
67274;SDS011;55463;52.324;5.122;2022-12-07T04:32:05;11.57;;;1.55;;
67274;SDS011;55463;52.324;5.122;2022-12-07T04:34:31;11.80;;;1.90;;
67274;SDS011;55463;52.324;5.122;2022-12-07T04:36:56;6.88;;;1.58;;
67274;SDS011;55463;52.324;5.122;2022-12-07T04:39:26;5.82;;;1.38;;
67274;SDS011;55463;52.324;5.122;2022-12-07T04:41:53;4.43;;;1.35;;
67274;SDS011;55463;52.324;5.122;2022-12-07T04:44:19;8.57;;;1.42;;
67274;SDS011;55463;52.324;5.122;2022-12-07T04:46:45;15.80;;;2.08;;
67274;SDS011;55463;52.324;5.122;2022-12-07T04:49:11;4.80;;;1.63;;
67274;SDS011;55463;52.324;5.122;2022-12-07T04:51:38;6.05;;;1.58;;
67274;SDS011;55463;52.324;5.122;2022-12-07T04:54:03;8.63;;;1.55;;
67274;SDS011;55463;52.324;5.122;2022-12-07T04:56:31;6.07;;;1.42;;
67274;SDS011;55463;52.324;5.122;2022-12-07T04:58:57;7.80;;;1.50;;
67274;SDS011;55463;52.324;5.122;2022-12-07T05:01:23;8.07;;;1.65;;
67274;SDS011;55463;52.324;5.122;2022-12-07T05:03:49;4.75;;;1.75;;
67274;SDS011;55463;52.324;5.122;2022-12-07T05:06:15;10.93;;;1.95;;
67274;SDS011;55463;52.324;5.122;2022-12-07T05:08:41;8.68;;;2.20;;
67274;SDS011;55463;52.324;5.122;2022-12-07T05:11:07;4.75;;;1.60;;
67274;SDS011;55463;52.324;5.122;2022-12-07T05:13:33;6.68;;;1.45;;
67274;SDS011;55463;52.324;5.122;2022-12-07T05:15:59;10.45;;;1.95;;
67274;SDS011;55463;52.324;5.122;2022-12-07T05:18:25;11.48;;;1.60;;
67274;SDS011;55463;52.324;5.122;2022-12-07T05:20:50;7.93;;;1.50;;
67274;SDS011;55463;52.324;5.122;2022-12-07T05:23:16;5.25;;;1.70;;
67274;SDS011;55463;52.324;5.122;2022-12-07T05:25:42;6.80;;;1.73;;
67274;SDS011;55463;52.324;5.122;2022-12-07T05:28:08;13.88;;;2.33;;
67274;SDS011;55463;52.324;5.122;2022-12-07T05:30:33;5.63;;;1.70;;
67274;SDS011;55463;52.324;5.122;2022-12-07T05:32:59;8.30;;;1.58;;
67274;SDS011;55463;52.324;5.122;2022-12-07T05:35:24;11.80;;;1.60;;
67274;SDS011;55463;52.324;5.122;2022-12-07T05:37:50;12.82;;;1.70;;
67274;SDS011;55463;52.324;5.122;2022-12-07T05:40:15;11.23;;;1.60;;
67274;SDS011;55463;52.324;5.122;2022-12-07T05:42:41;6.65;;;1.60;;
67274;SDS011;55463;52.324;5.122;2022-12-07T05:45:07;5.70;;;1.33;;
67274;SDS011;55463;52.324;5.122;2022-12-07T05:47:34;5.95;;;1.35;;
67274;SDS011;55463;52.324;5.122;2022-12-07T05:49:59;10.88;;;1.60;;
67274;SDS011;55463;52.324;5.122;2022-12-07T05:52:25;7.97;;;1.73;;
67274;SDS011;55463;52.324;5.122;2022-12-07T05:54:50;8.43;;;1.45;;
67274;SDS011;55463;52.324;5.122;2022-12-07T05:57:16;7.45;;;1.50;;
67274;SDS011;55463;52.324;5.122;2022-12-07T05:59:42;7.38;;;1.55;;
67274;SDS011;55463;52.324;5.122;2022-12-07T06:02:08;4.93;;;1.70;;
67274;SDS011;55463;52.324;5.122;2022-12-07T06:04:39;7.82;;;1.70;;
67274;SDS011;55463;52.324;5.122;2022-12-07T06:07:06;7.97;;;1.52;;
67274;SDS011;55463;52.324;5.122;2022-12-07T06:09:33;8.35;;;1.40;;
67274;SDS011;55463;52.324;5.122;2022-12-07T06:11:59;9.23;;;1.70;;
67274;SDS011;55463;52.324;5.122;2022-12-07T06:14:43;5.55;;;1.40;;
67274;SDS011;55463;52.324;5.122;2022-12-07T06:17:09;9.63;;;1.77;;
67274;SDS011;55463;52.324;5.122;2022-12-07T06:19:35;4.40;;;1.20;;
67274;SDS011;55463;52.324;5.122;2022-12-07T06:22:01;6.22;;;1.77;;
67274;SDS011;55463;52.324;5.122;2022-12-07T06:24:27;8.75;;;1.88;;
67274;SDS011;55463;52.324;5.122;2022-12-07T06:26:53;4.28;;;1.40;;
67274;SDS011;55463;52.324;5.122;2022-12-07T06:29:18;8.88;;;2.38;;
67274;SDS011;55463;52.324;5.122;2022-12-07T06:31:44;14.10;;;1.95;;
67274;SDS011;55463;52.324;5.122;2022-12-07T06:34:11;5.88;;;1.40;;
67274;SDS011;55463;52.324;5.122;2022-12-07T06:36:38;6.28;;;1.10;;
67274;SDS011;55463;52.324;5.122;2022-12-07T06:39:03;7.25;;;1.35;;
67274;SDS011;55463;52.324;5.122;2022-12-07T06:41:30;7.97;;;1.60;;
67274;SDS011;55463;52.324;5.122;2022-12-07T06:43:56;6.65;;;1.42;;
67274;SDS011;55463;52.324;5.122;2022-12-07T06:46:21;5.90;;;1.30;;
67274;SDS011;55463;52.324;5.122;2022-12-07T06:48:47;6.70;;;1.48;;
67274;SDS011;55463;52.324;5.122;2022-12-07T06:51:12;7.60;;;1.75;;
67274;SDS011;55463;52.324;5.122;2022-12-07T06:53:38;9.48;;;1.77;;
67274;SDS011;55463;52.324;5.122;2022-12-07T06:56:03;8.10;;;1.65;;
67274;SDS011;55463;52.324;5.122;2022-12-07T06:58:29;5.72;;;1.33;;
67274;SDS011;55463;52.324;5.122;2022-12-07T07:00:55;8.30;;;1.88;;
67274;SDS011;55463;52.324;5.122;2022-12-07T07:03:20;3.05;;;1.30;;
67274;SDS011;55463;52.324;5.122;2022-12-07T07:05:46;6.00;;;1.55;;
67274;SDS011;55463;52.324;5.122;2022-12-07T07:08:12;4.28;;;1.40;;
67274;SDS011;55463;52.324;5.122;2022-12-07T07:10:38;3.47;;;1.65;;
67274;SDS011;55463;52.324;5.122;2022-12-07T07:13:04;7.90;;;1.40;;
67274;SDS011;55463;52.324;5.122;2022-12-07T07:15:30;5.55;;;1.52;;
67274;SDS011;55463;52.324;5.122;2022-12-07T07:17:56;8.35;;;1.88;;
67274;SDS011;55463;52.324;5.122;2022-12-07T07:20:21;2.80;;;0.98;;
67274;SDS011;55463;52.324;5.122;2022-12-07T07:22:47;7.30;;;1.45;;
67274;SDS011;55463;52.324;5.122;2022-12-07T07:25:13;5.05;;;1.48;;
67274;SDS011;55463;52.324;5.122;2022-12-07T07:27:39;5.63;;;1.27;;
67274;SDS011;55463;52.324;5.122;2022-12-07T07:30:04;6.25;;;1.92;;
67274;SDS011;55463;52.324;5.122;2022-12-07T07:32:30;2.72;;;1.38;;
67274;SDS011;55463;52.324;5.122;2022-12-07T07:34:55;5.18;;;1.20;;
67274;SDS011;55463;52.324;5.122;2022-12-07T07:37:21;6.40;;;1.65;;
67274;SDS011;55463;52.324;5.122;2022-12-07T07:39:46;4.53;;;1.50;;
67274;SDS011;55463;52.324;5.122;2022-12-07T07:42:12;4.15;;;1.30;;
67274;SDS011;55463;52.324;5.122;2022-12-07T07:44:37;2.88;;;1.40;;
67274;SDS011;55463;52.324;5.122;2022-12-07T07:47:02;4.47;;;1.10;;
67274;SDS011;55463;52.324;5.122;2022-12-07T07:49:28;5.75;;;1.25;;
67274;SDS011;55463;52.324;5.122;2022-12-07T07:51:53;2.95;;;1.10;;
67274;SDS011;55463;52.324;5.122;2022-12-07T07:54:18;4.70;;;1.42;;
67274;SDS011;55463;52.324;5.122;2022-12-07T07:56:44;3.83;;;1.30;;
67274;SDS011;55463;52.324;5.122;2022-12-07T07:59:09;4.53;;;1.00;;
67274;SDS011;55463;52.324;5.122;2022-12-07T08:01:34;7.63;;;1.40;;
67274;SDS011;55463;52.324;5.122;2022-12-07T08:04:00;2.40;;;1.00;;
67274;SDS011;55463;52.324;5.122;2022-12-07T08:06:25;3.75;;;1.20;;
67274;SDS011;55463;52.324;5.122;2022-12-07T08:08:51;4.22;;;1.15;;
67274;SDS011;55463;52.324;5.122;2022-12-07T08:11:17;3.10;;;1.42;;
67274;SDS011;55463;52.324;5.122;2022-12-07T08:13:44;1.20;;;0.98;;
67274;SDS011;55463;52.324;5.122;2022-12-07T08:16:10;4.05;;;1.00;;
67274;SDS011;55463;52.324;5.122;2022-12-07T08:18:37;4.68;;;1.02;;
67274;SDS011;55463;52.324;5.122;2022-12-07T08:21:03;3.58;;;1.25;;
67274;SDS011;55463;52.324;5.122;2022-12-07T08:23:29;5.38;;;1.40;;
67274;SDS011;55463;52.324;5.122;2022-12-07T08:25:59;2.75;;;1.45;;
67274;SDS011;55463;52.324;5.122;2022-12-07T08:28:29;3.40;;;1.38;;
67274;SDS011;55463;52.324;5.122;2022-12-07T08:30:58;1.83;;;1.38;;
67274;SDS011;55463;52.324;5.122;2022-12-07T08:33:24;7.70;;;1.10;;
67274;SDS011;55463;52.324;5.122;2022-12-07T08:35:50;2.80;;;1.38;;
67274;SDS011;55463;52.324;5.122;2022-12-07T08:38:16;4.30;;;1.02;;
67274;SDS011;55463;52.324;5.122;2022-12-07T08:40:41;7.03;;;1.10;;
67274;SDS011;55463;52.324;5.122;2022-12-07T08:43:07;2.65;;;1.10;;
67274;SDS011;55463;52.324;5.122;2022-12-07T08:45:32;8.00;;;1.40;;
67274;SDS011;55463;52.324;5.122;2022-12-07T08:48:07;2.55;;;1.15;;
67274;SDS011;55463;52.324;5.122;2022-12-07T08:50:36;3.47;;;1.10;;
67274;SDS011;55463;52.324;5.122;2022-12-07T08:53:02;3.88;;;1.30;;
67274;SDS011;55463;52.324;5.122;2022-12-07T08:55:30;3.38;;;1.35;;
67274;SDS011;55463;52.324;5.122;2022-12-07T08:57:57;4.88;;;1.27;;
67274;SDS011;55463;52.324;5.122;2022-12-07T09:00:23;8.02;;;1.50;;
67274;SDS011;55463;52.324;5.122;2022-12-07T09:02:49;6.47;;;1.67;;
67274;SDS011;55463;52.324;5.122;2022-12-07T09:05:14;6.60;;;1.50;;
67274;SDS011;55463;52.324;5.122;2022-12-07T09:07:40;5.10;;;1.10;;
67274;SDS011;55463;52.324;5.122;2022-12-07T09:10:06;4.32;;;1.45;;
67274;SDS011;55463;52.324;5.122;2022-12-07T09:12:32;3.65;;;1.50;;
67274;SDS011;55463;52.324;5.122;2022-12-07T09:14:57;3.15;;;1.50;;
67274;SDS011;55463;52.324;5.122;2022-12-07T09:17:23;7.18;;;2.13;;
67274;SDS011;55463;52.324;5.122;2022-12-07T09:19:49;3.58;;;1.45;;
67274;SDS011;55463;52.324;5.122;2022-12-07T09:22:14;5.57;;;1.40;;
67274;SDS011;55463;52.324;5.122;2022-12-07T09:24:40;6.05;;;1.63;;
67274;SDS011;55463;52.324;5.122;2022-12-07T09:27:05;11.40;;;1.42;;
67274;SDS011;55463;52.324;5.122;2022-12-07T09:29:30;9.73;;;3.67;;
67274;SDS011;55463;52.324;5.122;2022-12-07T09:31:56;6.13;;;1.60;;
67274;SDS011;55463;52.324;5.122;2022-12-07T09:34:21;7.07;;;1.65;;
67274;SDS011;55463;52.324;5.122;2022-12-07T09:36:46;5.60;;;1.40;;
67274;SDS011;55463;52.324;5.122;2022-12-07T09:39:12;8.80;;;1.63;;
67274;SDS011;55463;52.324;5.122;2022-12-07T09:41:41;8.60;;;1.90;;
67274;SDS011;55463;52.324;5.122;2022-12-07T09:44:13;6.15;;;1.42;;
67274;SDS011;55463;52.324;5.122;2022-12-07T09:46:43;4.55;;;1.40;;
67274;SDS011;55463;52.324;5.122;2022-12-07T09:49:11;2.78;;;1.20;;
67274;SDS011;55463;52.324;5.122;2022-12-07T09:51:41;3.42;;;1.30;;
67274;SDS011;55463;52.324;5.122;2022-12-07T09:54:07;5.25;;;1.33;;
67274;SDS011;55463;52.324;5.122;2022-12-07T09:56:37;13.80;;;1.85;;
67274;SDS011;55463;52.324;5.122;2022-12-07T09:59:02;5.88;;;1.60;;
67274;SDS011;55463;52.324;5.122;2022-12-07T10:01:31;6.30;;;1.58;;
67274;SDS011;55463;52.324;5.122;2022-12-07T10:04:08;5.15;;;1.45;;
67274;SDS011;55463;52.324;5.122;2022-12-07T10:06:38;4.95;;;1.50;;
67274;SDS011;55463;52.324;5.122;2022-12-07T10:09:13;4.60;;;1.38;;
67274;SDS011;55463;52.324;5.122;2022-12-07T10:12:01;4.22;;;1.70;;
67274;SDS011;55463;52.324;5.122;2022-12-07T10:14:35;9.18;;;1.45;;
67274;SDS011;55463;52.324;5.122;2022-12-07T10:17:08;8.02;;;1.50;;
67274;SDS011;55463;52.324;5.122;2022-12-07T10:22:54;4.13;;;1.60;;
67274;SDS011;55463;52.324;5.122;2022-12-07T10:25:21;7.72;;;1.55;;
67274;SDS011;55463;52.324;5.122;2022-12-07T10:27:57;5.05;;;1.70;;
67274;SDS011;55463;52.324;5.122;2022-12-07T10:30:50;6.85;;;1.75;;
67274;SDS011;55463;52.324;5.122;2022-12-07T10:33:37;8.75;;;1.80;;
67274;SDS011;55463;52.324;5.122;2022-12-07T10:39:11;3.83;;;1.83;;
67274;SDS011;55463;52.324;5.122;2022-12-07T10:42:00;7.32;;;1.52;;
67274;SDS011;55463;52.324;5.122;2022-12-07T10:44:29;8.82;;;2.13;;
67274;SDS011;55463;52.324;5.122;2022-12-07T10:47:01;8.10;;;1.70;;
67274;SDS011;55463;52.324;5.122;2022-12-07T11:00:04;9.48;;;2.17;;
67274;SDS011;55463;52.324;5.122;2022-12-07T11:05:36;12.07;;;2.15;;
67274;SDS011;55463;52.324;5.122;2022-12-07T11:10:55;11.77;;;2.35;;
67274;SDS011;55463;52.324;5.122;2022-12-07T11:13:26;8.50;;;2.10;;
67274;SDS011;55463;52.324;5.122;2022-12-07T11:18:56;10.43;;;2.57;;
67274;SDS011;55463;52.324;5.122;2022-12-07T11:21:48;6.35;;;2.28;;
67274;SDS011;55463;52.324;5.122;2022-12-07T11:24:26;7.95;;;1.90;;
67274;SDS011;55463;52.324;5.122;2022-12-07T11:27:06;6.80;;;2.08;;
67274;SDS011;55463;52.324;5.122;2022-12-07T11:37:41;7.25;;;2.00;;
67274;SDS011;55463;52.324;5.122;2022-12-07T11:42:54;9.90;;;2.03;;
67274;SDS011;55463;52.324;5.122;2022-12-07T11:45:29;9.65;;;2.10;;
67274;SDS011;55463;52.324;5.122;2022-12-07T11:48:01;9.05;;;2.17;;
67274;SDS011;55463;52.324;5.122;2022-12-07T11:50:47;6.38;;;2.40;;
67274;SDS011;55463;52.324;5.122;2022-12-07T11:53:26;7.18;;;2.20;;
67274;SDS011;55463;52.324;5.122;2022-12-07T12:01:14;5.93;;;2.25;;
67274;SDS011;55463;52.324;5.122;2022-12-07T12:06:38;5.60;;;2.45;;
67274;SDS011;55463;52.324;5.122;2022-12-07T12:09:18;8.47;;;2.07;;
67274;SDS011;55463;52.324;5.122;2022-12-07T12:12:07;4.97;;;1.50;;
67274;SDS011;55463;52.324;5.122;2022-12-07T12:20:31;4.05;;;1.23;;
67274;SDS011;55463;52.324;5.122;2022-12-07T12:23:12;3.30;;;1.17;;
67274;SDS011;55463;52.324;5.122;2022-12-07T12:28:23;2.75;;;1.00;;
67274;SDS011;55463;52.324;5.122;2022-12-07T12:33:46;4.97;;;1.40;;
67274;SDS011;55463;52.324;5.122;2022-12-07T12:36:18;4.85;;;1.40;;
67274;SDS011;55463;52.324;5.122;2022-12-07T12:41:51;5.28;;;1.60;;
67274;SDS011;55463;52.324;5.122;2022-12-07T12:46:47;5.93;;;1.08;;
67274;SDS011;55463;52.324;5.122;2022-12-07T12:55:01;8.52;;;1.40;;
67274;SDS011;55463;52.324;5.122;2022-12-07T12:57:32;6.15;;;1.75;;
67274;SDS011;55463;52.324;5.122;2022-12-07T12:59:58;7.43;;;1.65;;
67274;SDS011;55463;52.324;5.122;2022-12-07T13:18:41;4.50;;;1.15;;
67274;SDS011;55463;52.324;5.122;2022-12-07T13:28:42;3.00;;;1.10;;
67274;SDS011;55463;52.324;5.122;2022-12-07T13:33:59;2.50;;;1.00;;
67274;SDS011;55463;52.324;5.122;2022-12-07T13:36:26;3.28;;;1.10;;
67274;SDS011;55463;52.324;5.122;2022-12-07T13:39:09;4.63;;;1.10;;
67274;SDS011;55463;52.324;5.122;2022-12-07T13:44:11;4.00;;;1.33;;
67274;SDS011;55463;52.324;5.122;2022-12-07T13:46:52;10.45;;;1.95;;
67274;SDS011;55463;52.324;5.122;2022-12-07T13:49:32;9.88;;;1.73;;
67274;SDS011;55463;52.324;5.122;2022-12-07T13:54:49;5.10;;;1.30;;
67274;SDS011;55463;52.324;5.122;2022-12-07T13:57:18;4.20;;;1.40;;
67274;SDS011;55463;52.324;5.122;2022-12-07T13:59:43;4.72;;;1.60;;
67274;SDS011;55463;52.324;5.122;2022-12-07T14:02:19;6.63;;;1.63;;
67274;SDS011;55463;52.324;5.122;2022-12-07T14:04:46;7.25;;;1.10;;
67274;SDS011;55463;52.324;5.122;2022-12-07T14:07:18;12.00;;;3.30;;
67274;SDS011;55463;52.324;5.122;2022-12-07T14:10:03;2.25;;;1.20;;
67274;SDS011;55463;52.324;5.122;2022-12-07T14:12:30;4.55;;;1.55;;
67274;SDS011;55463;52.324;5.122;2022-12-07T14:14:57;4.55;;;1.58;;
67274;SDS011;55463;52.324;5.122;2022-12-07T14:17:25;5.82;;;1.52;;
67274;SDS011;55463;52.324;5.122;2022-12-07T14:19:55;3.42;;;1.48;;
67274;SDS011;55463;52.324;5.122;2022-12-07T14:27:39;1.67;;;0.60;;
67274;SDS011;55463;52.324;5.122;2022-12-07T14:30:17;1.83;;;1.00;;
67274;SDS011;55463;52.324;5.122;2022-12-07T14:32:43;2.42;;;1.30;;
67274;SDS011;55463;52.324;5.122;2022-12-07T14:35:14;4.50;;;2.95;;
67274;SDS011;55463;52.324;5.122;2022-12-07T14:37:42;4.93;;;1.77;;
67274;SDS011;55463;52.324;5.122;2022-12-07T14:40:12;4.32;;;1.67;;
67274;SDS011;55463;52.324;5.122;2022-12-07T14:42:39;5.35;;;2.80;;
67274;SDS011;55463;52.324;5.122;2022-12-07T14:45:11;6.53;;;2.90;;
67274;SDS011;55463;52.324;5.122;2022-12-07T14:47:39;7.55;;;2.10;;
67274;SDS011;55463;52.324;5.122;2022-12-07T14:50:04;5.40;;;3.03;;
67274;SDS011;55463;52.324;5.122;2022-12-07T14:52:30;8.85;;;5.28;;
67274;SDS011;55463;52.324;5.122;2022-12-07T14:54:56;6.40;;;3.00;;
67274;SDS011;55463;52.324;5.122;2022-12-07T14:57:21;4.55;;;2.25;;
67274;SDS011;55463;52.324;5.122;2022-12-07T14:59:47;4.35;;;2.80;;
67274;SDS011;55463;52.324;5.122;2022-12-07T15:02:13;5.68;;;3.00;;
67274;SDS011;55463;52.324;5.122;2022-12-07T15:04:39;7.57;;;3.08;;
67274;SDS011;55463;52.324;5.122;2022-12-07T15:07:08;6.05;;;3.50;;
67274;SDS011;55463;52.324;5.122;2022-12-07T15:09:37;8.43;;;3.58;;
67274;SDS011;55463;52.324;5.122;2022-12-07T15:12:03;7.20;;;3.30;;
67274;SDS011;55463;52.324;5.122;2022-12-07T15:14:28;11.15;;;5.00;;
67274;SDS011;55463;52.324;5.122;2022-12-07T15:16:54;5.38;;;3.03;;
67274;SDS011;55463;52.324;5.122;2022-12-07T15:19:20;12.77;;;5.78;;
67274;SDS011;55463;52.324;5.122;2022-12-07T15:21:50;9.95;;;4.82;;
67274;SDS011;55463;52.324;5.122;2022-12-07T15:24:16;20.10;;;9.90;;
67274;SDS011;55463;52.324;5.122;2022-12-07T15:26:41;15.60;;;7.28;;
67274;SDS011;55463;52.324;5.122;2022-12-07T15:29:07;20.88;;;5.47;;
67274;SDS011;55463;52.324;5.122;2022-12-07T15:31:33;9.73;;;4.63;;
67274;SDS011;55463;52.324;5.122;2022-12-07T15:33:59;6.53;;;3.25;;
67274;SDS011;55463;52.324;5.122;2022-12-07T15:36:26;8.75;;;3.33;;
67274;SDS011;55463;52.324;5.122;2022-12-07T15:38:53;4.35;;;2.55;;
67274;SDS011;55463;52.324;5.122;2022-12-07T15:41:19;4.22;;;2.05;;
67274;SDS011;55463;52.324;5.122;2022-12-07T15:43:45;10.32;;;2.30;;
67274;SDS011;55463;52.324;5.122;2022-12-07T15:46:29;14.18;;;3.15;;
67274;SDS011;55463;52.324;5.122;2022-12-07T15:48:56;8.70;;;2.38;;
67274;SDS011;55463;52.324;5.122;2022-12-07T15:51:21;1.95;;;1.50;;
67274;SDS011;55463;52.324;5.122;2022-12-07T15:53:47;3.40;;;1.60;;
67274;SDS011;55463;52.324;5.122;2022-12-07T15:56:12;5.40;;;1.52;;
67274;SDS011;55463;52.324;5.122;2022-12-07T15:58:37;7.13;;;1.60;;
67274;SDS011;55463;52.324;5.122;2022-12-07T16:01:13;7.20;;;1.75;;
67274;SDS011;55463;52.324;5.122;2022-12-07T16:03:39;4.53;;;1.67;;
67274;SDS011;55463;52.324;5.122;2022-12-07T16:06:05;4.68;;;1.40;;
67274;SDS011;55463;52.324;5.122;2022-12-07T16:08:31;5.03;;;1.92;;
67274;SDS011;55463;52.324;5.122;2022-12-07T16:10:56;7.25;;;1.90;;
67274;SDS011;55463;52.324;5.122;2022-12-07T16:13:21;4.80;;;1.70;;
67274;SDS011;55463;52.324;5.122;2022-12-07T16:15:47;5.97;;;1.80;;
67274;SDS011;55463;52.324;5.122;2022-12-07T16:18:12;5.55;;;2.30;;
67274;SDS011;55463;52.324;5.122;2022-12-07T16:20:38;5.18;;;2.33;;
67274;SDS011;55463;52.324;5.122;2022-12-07T16:23:03;3.40;;;1.67;;
67274;SDS011;55463;52.324;5.122;2022-12-07T16:25:30;6.13;;;1.90;;
67274;SDS011;55463;52.324;5.122;2022-12-07T16:27:55;5.50;;;2.42;;
67274;SDS011;55463;52.324;5.122;2022-12-07T16:30:20;4.50;;;1.58;;
67274;SDS011;55463;52.324;5.122;2022-12-07T16:32:46;7.28;;;1.98;;
67274;SDS011;55463;52.324;5.122;2022-12-07T16:35:11;7.65;;;1.65;;
67274;SDS011;55463;52.324;5.122;2022-12-07T16:37:37;6.13;;;1.75;;
67274;SDS011;55463;52.324;5.122;2022-12-07T16:40:03;5.47;;;1.90;;
67274;SDS011;55463;52.324;5.122;2022-12-07T16:42:33;4.15;;;1.80;;
67274;SDS011;55463;52.324;5.122;2022-12-07T16:44:59;13.45;;;2.55;;
67274;SDS011;55463;52.324;5.122;2022-12-07T16:47:25;10.38;;;3.40;;
67274;SDS011;55463;52.324;5.122;2022-12-07T16:49:50;7.70;;;3.00;;
67274;SDS011;55463;52.324;5.122;2022-12-07T16:52:17;8.10;;;2.53;;
67274;SDS011;55463;52.324;5.122;2022-12-07T16:54:46;6.32;;;2.60;;
67274;SDS011;55463;52.324;5.122;2022-12-07T16:57:12;13.20;;;2.70;;
67274;SDS011;55463;52.324;5.122;2022-12-07T16:59:37;9.43;;;2.83;;
67274;SDS011;55463;52.324;5.122;2022-12-07T17:02:03;5.78;;;2.30;;
67274;SDS011;55463;52.324;5.122;2022-12-07T17:04:28;5.88;;;2.17;;
67274;SDS011;55463;52.324;5.122;2022-12-07T17:06:54;5.32;;;2.05;;
67274;SDS011;55463;52.324;5.122;2022-12-07T17:09:19;8.73;;;1.95;;
67274;SDS011;55463;52.324;5.122;2022-12-07T17:11:45;5.35;;;2.00;;
67274;SDS011;55463;52.324;5.122;2022-12-07T17:14:11;3.63;;;1.50;;
67274;SDS011;55463;52.324;5.122;2022-12-07T17:16:55;9.15;;;1.98;;
67274;SDS011;55463;52.324;5.122;2022-12-07T17:19:20;10.07;;;2.70;;